createdAt,value
2022-11-05T00:09:33.410Z,10.13
2022-11-05T00:24:56.200Z,10.25
2022-11-05T00:40:02.271Z,10.19
2022-11-05T00:55:08.705Z,10.13
2022-11-05T01:10:14.292Z,10.25
2022-11-05T01:25:20.046Z,10.38
2022-11-05T01:40:26.665Z,10.31
2022-11-05T01:55:35.616Z,10.31
2022-11-05T02:10:41.785Z,10.25
2022-11-05T02:26:19.523Z,10.31
2022-11-05T02:41:33.935Z,10.38
2022-11-05T02:56:43.180Z,10.38
2022-11-05T03:11:59.817Z,10.13
2022-11-05T03:27:10.505Z,10.25
2022-11-05T03:42:19.265Z,10.25
2022-11-05T03:57:28.486Z,10.31
2022-11-05T04:12:51.287Z,10.31
2022-11-05T04:28:01.421Z,10.25
2022-11-05T04:43:13.607Z,10.25
2022-11-05T04:58:21.037Z,10.19
2022-11-05T05:13:26.657Z,10.31
2022-11-05T05:28:32.329Z,10.19
2022-11-05T05:43:37.980Z,10.38
2022-11-05T05:58:43.843Z,10.31
2022-11-05T06:13:49.552Z,10.31
2022-11-05T06:28:55.243Z,10.38
2022-11-05T06:44:01.386Z,10.25
2022-11-05T06:59:08.842Z,10.31
2022-11-05T07:14:14.427Z,10.19
2022-11-05T07:29:20.228Z,10.31
2022-11-05T07:44:25.869Z,10.50
2022-11-05T07:59:31.550Z,10.69
2022-11-05T08:14:37.439Z,10.75
2022-11-05T08:29:43.002Z,11.00
2022-11-05T08:44:51.710Z,11.13
2022-11-05T08:59:57.988Z,11.19
2022-11-05T09:15:03.792Z,11.19
2022-11-05T09:30:11.944Z,11.44
2022-11-05T09:45:20.536Z,11.50
2022-11-05T10:00:26.441Z,11.69
2022-11-05T10:15:34.662Z,11.94
2022-11-05T10:30:40.524Z,12.06
2022-11-05T10:45:54.130Z,12.31
2022-11-05T11:01:09.662Z,12.38
2022-11-05T11:16:22.828Z,12.38
2022-11-05T11:31:31.114Z,12.50
2022-11-05T11:46:37.940Z,12.13
2022-11-05T12:02:15.453Z,12.06
2022-11-05T12:17:35.418Z,12.25
2022-11-05T12:33:03.957Z,12.38
2022-11-05T12:48:32.811Z,12.00
2022-11-05T13:03:45.942Z,11.94
2022-11-05T13:18:54.207Z,11.75
2022-11-05T13:34:02.182Z,11.69
2022-11-05T13:49:42.051Z,11.88
2022-11-05T14:04:51.159Z,11.63
2022-11-05T14:20:26.819Z,11.81
2022-11-05T14:35:40.621Z,11.31
2022-11-05T14:50:46.622Z,11.13
2022-11-05T15:06:21.424Z,11.13
2022-11-05T15:21:28.949Z,10.88
2022-11-05T15:36:34.723Z,10.50
2022-11-05T15:51:40.361Z,10.06
2022-11-05T16:06:48.557Z,9.63
2022-11-05T16:21:57.017Z,9.44
2022-11-05T16:37:02.898Z,8.94
2022-11-05T16:52:11.162Z,8.81
2022-11-05T17:07:17.135Z,8.69
2022-11-05T17:22:22.953Z,8.50
2022-11-05T17:37:28.892Z,8.50
2022-11-05T17:52:34.563Z,8.31
2022-11-05T18:07:40.711Z,8.19
2022-11-05T18:22:46.495Z,8.13
2022-11-05T18:37:53.240Z,8.19
2022-11-05T18:52:58.954Z,8.38
2022-11-05T19:08:05.209Z,8.75
2022-11-05T19:23:10.762Z,8.31
2022-11-05T19:38:16.359Z,8.06
2022-11-05T19:53:22.142Z,7.81
2022-11-05T20:08:27.893Z,7.56
2022-11-05T20:23:33.924Z,7.31
2022-11-05T20:38:39.640Z,7.38
2022-11-05T20:53:46.409Z,7.44
2022-11-05T21:08:52.821Z,7.31
2022-11-05T21:23:59.354Z,7.13
2022-11-05T21:39:10.456Z,7.25
2022-11-05T21:54:35.935Z,7.38
2022-11-05T22:09:42.067Z,7.50
2022-11-05T22:24:47.780Z,7.38
2022-11-05T22:39:53.544Z,7.31
2022-11-05T22:54:59.392Z,7.31
2022-11-05T23:10:22.738Z,7.19
2022-11-05T23:25:28.553Z,7.19
2022-11-05T23:40:55.671Z,7.06
2022-11-05T23:56:06.400Z,7.13
